CST,Max TemperatureF,Mean TemperatureF,Min TemperatureF,Max Dew PointF,MeanDew PointF,Min DewpointF,Max Humidity, Mean Humidity, Min Humidity, Max Sea Level PressureIn, Mean Sea Level PressureIn, Min Sea Level PressureIn, Max VisibilityMiles, Mean VisibilityMiles, Min VisibilityMiles, Max Wind SpeedMPH, Mean Wind SpeedMPH, Max Gust SpeedMPH,PrecipitationIn, CloudCover, Events, WindDirDegrees
2012-12-1,47,37,26,39,31,25,100,79,58,29.85,29.76,29.65,10,8,1,13,4,15,T,1,,79
2012-12-2,54,40,26,35,31,28,100,72,44,29.83,29.62,29.35,10,10,7,18,11,23,0.00,0,,143
2012-12-3,54,42,30,38,27,20,70,49,28,30.00,29.72,29.33,10,10,10,40,13,47,T,1,Rain,301
2012-12-4,35,26,16,20,17,15,100,76,51,30.30,30.20,30.01,10,10,10,17,7,21,0.00,0,,61
2012-12-5,44,33,21,29,22,15,84,67,49,30.16,29.86,29.69,10,10,10,17,8,21,0.00,1,,122
2012-12-6,46,33,20,25,21,15,81,63,45,30.02,29.97,29.82,10,10,8,23,9,29,0.00,3,,315
2012-12-7,33,30,27,32,30,22,100,85,69,29.99,29.94,29.88,10,5,0,14,4,17,0.19,8,Fog-Snow,167
2012-12-8,31,24,16,29,25,11,100,92,84,29.98,29.80,29.66,10,7,0,30,17,36,0.22,8,Fog-Rain-Snow,126
2012-12-9,16,4,-8,10,1,-9,91,82,73,30.40,30.21,29.94,10,5,0,33,17,40,0.05,5,Fog-Snow,349
2012-12-10,27,11,-6,20,6,-8,96,82,68,30.19,29.90,29.76,10,7,1,18,9,23,T,6,Snow,181
2012-12-11,30,25,20,23,21,18,88,82,75,29.86,29.79,29.67,10,10,10,20,9,24,0.00,5,,236
2012-12-12,37,28,18,26,22,17,92,81,69,29.86,29.73,29.64,10,10,10,22,6,25,0.00,3,,129
2012-12-13,26,19,12,25,19,10,100,92,84,30.12,30.00,29.87,10,7,1,15,6,17,0.00,7,,113
2012-12-14,23,15,7,17,12,6,100,89,77,29.97,29.81,29.70,10,7,3,12,3,13,0.00,0,,20
2012-12-15,29,22,15,22,17,12,100,82,63,29.83,29.75,29.68,10,9,2,18,9,23,0.00,3,,335
2012-12-16,25,23,20,23,21,18,100,94,88,29.83,29.77,29.70,10,5,0,10,6,13,0.00,8,Fog,72
2012-12-17,25,23,20,25,21,18,100,94,88,29.80,29.62,29.49,10,4,0,15,8,17,0.00,8,Fog,159
2012-12-18,38,29,20,24,21,15,100,76,52,29.79,29.59,29.48,10,7,0,12,4,15,0.01,5,Fog-Snow,212
2012-12-19,27,17,7,14,9,3,88,75,62,30.19,30.00,29.79,10,10,10,21,9,25,0.00,1,,320
2012-12-20,22,10,-3,13,6,-5,95,81,67,30.24,30.19,30.08,10,10,8,12,3,14,0.00,2,,43
2012-12-21,26,15,4,16,10,3,88,75,62,30.22,30.14,30.02,10,10,10,15,8,18,0.00,0,,137
2012-12-22,16,9,1,10,6,-2,92,81,70,30.22,30.14,30.00,10,10,10,18,7,24,0.00,0,,351
2012-12-23,11,7,2,5,2,-2,91,82,73,30.19,30.07,29.99,10,6,1,14,7,18,T,7,Snow,7
2012-12-24,2,-4,-11,-4,-9,-13,87,80,72,30.52,30.33,30.18,10,10,10,12,7,13,0.00,0,,348
2012-12-25,12,2,-9,7,2,-14,87,77,66,30.59,30.45,30.24,10,7,2,12,4,13,0.02,8,Snow,183
2012-12-26,11,8,5,5,3,1,88,81,73,30.34,30.17,29.99,10,8,2,18,12,23,T,6,Snow,123
2012-12-27,16,8,0,10,7,-1,100,87,73,30.15,30.04,29.96,10,5,1,18,9,22,0.05,7,Snow,106
2012-12-28,9,5,1,5,1,-2,96,86,76,30.17,30.08,29.98,10,4,0,8,3,9,0.00,7,Fog,240
2012-12-29,25,10,-6,15,4,-9,95,82,68,30.15,30.11,29.99,10,10,10,7,2,8,0.00,0,,131
2012-12-30,24,11,-3,18,10,-4,95,81,67,30.16,30.04,29.90,10,10,10,22,8,25,0.00,2,,333
2012-12-31,23,18,12,17,10,6,84,79,73,30.25,30.18,30.06,10,8,2,12,7,14,T,8,Snow,85